createdAt,value
2022-08-09T00:04:15.409Z,101035.50
2022-08-09T00:09:31.187Z,101031.34
2022-08-09T00:14:38.576Z,101039.38
2022-08-09T00:19:43.009Z,101038.25
2022-08-09T00:24:51.658Z,101035.59
2022-08-09T00:30:23.723Z,101029.47
2022-08-09T00:35:20.445Z,101031.59
2022-08-09T00:40:31.032Z,101036.88
2022-08-09T00:45:36.699Z,101033.19
2022-08-09T00:50:40.285Z,101040.50
2022-08-09T00:56:05.002Z,101025.47
2022-08-09T01:01:19.738Z,101030.88
2022-08-09T01:06:53.849Z,101026.88
2022-08-09T01:12:08.615Z,101024.00
2022-08-09T01:17:24.163Z,101019.06
2022-08-09T01:22:42.846Z,101016.38
2022-08-09T01:27:50.829Z,101019.72
2022-08-09T01:32:58.653Z,101018.81
2022-08-09T01:38:10.436Z,101016.88
2022-08-09T01:43:20.959Z,101012.63
2022-08-09T01:48:31.571Z,101003.78
2022-08-09T01:53:41.556Z,100985.31
2022-08-09T01:58:50.677Z,100978.75
2022-08-09T02:03:57.025Z,100996.22
2022-08-09T02:09:01.125Z,100995.72
2022-08-09T02:14:09.599Z,101005.66
2022-08-09T02:19:13.560Z,101012.97
2022-08-09T02:24:26.219Z,101015.22
2022-08-09T02:29:38.528Z,101019.13
2022-08-09T02:34:51.926Z,101027.63
2022-08-09T02:40:10.560Z,101033.31
2022-08-09T02:45:21.395Z,101047.97
2022-08-09T02:50:36.086Z,101053.34
2022-08-09T02:55:57.666Z,101059.59
2022-08-09T03:01:07.762Z,101072.25
2022-08-09T03:06:13.449Z,101075.06
2022-08-09T03:11:29.672Z,101081.81
2022-08-09T03:16:47.376Z,101092.25
2022-08-09T03:21:53.051Z,101090.97
2022-08-09T03:26:58.209Z,101093.97
2022-08-09T03:32:04.244Z,101097.66
2022-08-09T03:37:56.179Z,101099.78
2022-08-09T03:42:35.807Z,101091.03
2022-08-09T03:47:44.147Z,101089.75
2022-08-09T03:52:50.762Z,101080.66
2022-08-09T03:58:03.519Z,101088.72
2022-08-09T04:03:35.336Z,101095.28
2022-08-09T04:08:39.317Z,101087.88
2022-08-09T04:14:36.766Z,101092.41
2022-08-09T04:19:11.110Z,101091.69
2022-08-09T04:24:19.546Z,101092.81
2022-08-09T04:29:23.759Z,101103.63
2022-08-09T04:34:35.201Z,101109.50
2022-08-09T04:39:40.914Z,101106.75
2022-08-09T04:44:49.089Z,101119.81
2022-08-09T04:49:55.856Z,101122.59
2022-08-09T04:55:01.022Z,101134.50
2022-08-09T05:00:06.084Z,101131.31
2022-08-09T05:05:13.168Z,101136.38
2022-08-09T05:10:36.839Z,101132.88
2022-08-09T05:15:43.224Z,101136.00
2022-08-09T05:20:53.549Z,101142.03
2022-08-09T05:25:56.848Z,101142.72
2022-08-09T05:31:00.536Z,101138.69
2022-08-09T05:36:14.867Z,101138.50
2022-08-09T05:41:19.174Z,101139.50
2022-08-09T05:46:23.399Z,101128.94
2022-08-09T05:51:43.154Z,101117.03
2022-08-09T05:56:55.062Z,101113.03
2022-08-09T06:02:00.286Z,101110.16
2022-08-09T06:07:06.576Z,101114.19
2022-08-09T06:12:12.942Z,101108.28
2022-08-09T06:17:16.592Z,101106.41
2022-08-09T06:22:28.697Z,101107.41
2022-08-09T06:27:42.260Z,101107.25
2022-08-09T06:33:13.734Z,101110.59
2022-08-09T06:38:12.037Z,101118.03
2022-08-09T06:43:19.457Z,101122.06
2022-08-09T06:48:30.705Z,101129.88
2022-08-09T06:53:38.362Z,101120.50
2022-08-09T07:00:48.976Z,101128.38
2022-08-09T07:04:06.227Z,101126.72
2022-08-09T07:09:54.832Z,101122.94
2022-08-09T07:14:39.250Z,101127.72
2022-08-09T07:19:42.859Z,101124.00
2022-08-09T07:24:53.219Z,101130.66
2022-08-09T07:29:58.612Z,101140.06
2022-08-09T07:35:02.647Z,101143.97
2022-08-09T07:40:09.614Z,101140.63
2022-08-09T07:45:22.809Z,101153.88
2022-08-09T07:50:40.702Z,101135.28
2022-08-09T07:56:03.597Z,101137.81
2022-08-09T08:01:11.283Z,101131.03
2022-08-09T08:06:15.055Z,101135.75
2022-08-09T08:12:11.391Z,101143.28
2022-08-09T08:17:01.092Z,101136.72
2022-08-09T08:22:11.724Z,101128.84
2022-08-09T08:27:18.710Z,101138.75
2022-08-09T08:32:29.189Z,101136.19
2022-08-09T08:37:41.659Z,101126.50
2022-08-09T08:42:59.809Z,101120.78
2022-08-09T08:48:03.689Z,101114.56
2022-08-09T08:53:11.993Z,101107.75
2022-08-09T08:58:27.119Z,101108.56
2022-08-09T09:03:37.886Z,101113.81
2022-08-09T09:08:43.777Z,101101.56
2022-08-09T09:14:01.320Z,101114.56
2022-08-09T09:19:37.149Z,101111.47
2022-08-09T09:24:32.482Z,101119.09
2022-08-09T09:30:08.317Z,101106.19
2022-08-09T09:35:08.992Z,101107.69
2022-08-09T09:40:13.631Z,101102.25
2022-08-09T09:45:26.696Z,101101.72
2022-08-09T09:50:49.637Z,101111.34
2022-08-09T09:56:03.946Z,101112.16
2022-08-09T10:01:37.359Z,101108.94
2022-08-09T10:06:46.775Z,101115.06
2022-08-09T10:12:07.630Z,101104.50
2022-08-09T10:17:40.407Z,101097.69
2022-08-09T10:22:46.527Z,101096.34
2022-08-09T10:27:57.106Z,101091.44
2022-08-09T10:33:04.072Z,101083.28
2022-08-09T10:38:54.637Z,101090.13
2022-08-09T10:43:50.621Z,101084.41
2022-08-09T10:49:10.512Z,101070.63
2022-08-09T10:54:14.138Z,101076.28
2022-08-09T10:59:55.296Z,101069.19
2022-08-09T11:05:25.321Z,101072.03
2022-08-09T11:10:57.807Z,101079.16
2022-08-09T11:16:37.235Z,101083.19
2022-08-09T11:22:16.659Z,101079.16
2022-08-09T11:28:02.902Z,101088.94
2022-08-09T11:33:01.538Z,101084.44
2022-08-09T11:38:22.186Z,101085.38
2022-08-09T11:43:47.429Z,101079.91
2022-08-09T11:48:53.953Z,101092.19
2022-08-09T11:54:33.184Z,101087.69
2022-08-09T11:59:37.952Z,101106.72
2022-08-09T12:04:42.141Z,101104.81
2022-08-09T12:09:50.695Z,101105.13
2022-08-09T12:15:07.429Z,101109.19
2022-08-09T12:20:16.308Z,101115.50
2022-08-09T12:25:36.457Z,101120.59
2022-08-09T12:30:41.457Z,101111.94
2022-08-09T12:35:47.852Z,101121.06
2022-08-09T12:40:56.422Z,101118.25
2022-08-09T12:46:00.925Z,101115.44
2022-08-09T12:51:04.710Z,101127.88
2022-08-09T12:56:44.052Z,101137.69
2022-08-09T13:01:46.972Z,101134.94
2022-08-09T13:06:54.106Z,101143.38
2022-08-09T13:12:05.352Z,101133.50
2022-08-09T13:17:21.814Z,101143.88
2022-08-09T13:23:05.764Z,101151.28
2022-08-09T13:28:18.985Z,101151.28
2022-08-09T13:33:52.431Z,101159.53
2022-08-09T13:39:00.971Z,101169.81
2022-08-09T13:44:17.123Z,101176.13
2022-08-09T13:49:21.407Z,101179.38
2022-08-09T13:54:42.887Z,101174.56
2022-08-09T13:59:54.363Z,101193.59
2022-08-09T14:05:00.197Z,101204.72
2022-08-09T14:10:04.726Z,101201.97
2022-08-09T14:15:19.781Z,101207.88
2022-08-09T14:20:33.652Z,101204.84
2022-08-09T14:25:42.899Z,101192.56
2022-08-09T14:30:48.509Z,101215.28
2022-08-09T14:35:53.603Z,101213.31
2022-08-09T14:41:02.329Z,101228.41
2022-08-09T14:46:58.131Z,101229.88
2022-08-09T14:51:42.338Z,101234.81
2022-08-09T14:56:57.484Z,101230.94
2022-08-09T15:02:02.894Z,101226.47
2022-08-09T15:07:10.058Z,101233.44
2022-08-09T15:12:13.971Z,101224.75
2022-08-09T15:17:19.241Z,101225.69
2022-08-09T15:22:22.862Z,101234.16
2022-08-09T15:27:29.881Z,101240.69
2022-08-09T15:32:53.483Z,101238.41
2022-08-09T15:38:11.176Z,101237.88
2022-08-09T15:43:15.507Z,101240.47
2022-08-09T15:48:28.743Z,101244.88
2022-08-09T15:54:05.305Z,101236.75
2022-08-09T15:58:57.398Z,101239.97
2022-08-09T16:04:03.198Z,101241.00
2022-08-09T16:09:07.290Z,101245.59
2022-08-09T16:14:10.897Z,101239.78
2022-08-09T16:19:19.128Z,101239.59
2022-08-09T16:24:33.797Z,101225.19
2022-08-09T16:29:50.638Z,101220.50
2022-08-09T16:34:58.734Z,101214.31
2022-08-09T16:40:04.595Z,101220.63
2022-08-09T16:45:10.245Z,101208.97
2022-08-09T16:50:29.779Z,101218.47
2022-08-09T16:56:00.279Z,101212.94
2022-08-09T17:01:00.238Z,101207.59
2022-08-09T17:06:28.227Z,101207.81
2022-08-09T17:11:40.811Z,101204.31
2022-08-09T17:16:46.021Z,101209.63
2022-08-09T17:21:55.612Z,101195.63
2022-08-09T17:26:59.431Z,101202.47
2022-08-09T17:32:03.005Z,101201.94
2022-08-09T17:37:16.027Z,101197.75
2022-08-09T17:42:42.116Z,101207.72
2022-08-09T17:47:49.762Z,101196.25
2022-08-09T17:53:01.090Z,101209.47
2022-08-09T17:58:09.520Z,101207.28
2022-08-09T18:03:13.421Z,101208.03
2022-08-09T18:08:22.001Z,101202.34
2022-08-09T18:13:39.306Z,101209.47
2022-08-09T18:18:54.763Z,101207.03
2022-08-09T18:24:11.082Z,101202.00
2022-08-09T18:30:42.912Z,101196.13
2022-08-09T18:34:40.991Z,101191.97
2022-08-09T18:39:48.357Z,101198.69
2022-08-09T18:44:52.869Z,101202.53
2022-08-09T18:50:03.045Z,101195.22
2022-08-09T18:55:13.858Z,101205.63
2022-08-09T19:00:20.536Z,101207.97
2022-08-09T19:05:28.611Z,101203.22
2022-08-09T19:10:50.861Z,101205.72
2022-08-09T19:15:58.741Z,101190.09
2022-08-09T19:21:02.687Z,101191.78
2022-08-09T19:26:08.278Z,101191.50
2022-08-09T19:31:15.370Z,101186.94
2022-08-09T19:36:20.466Z,101187.72
2022-08-09T19:41:33.161Z,101191.56
2022-08-09T19:46:50.257Z,101183.81
2022-08-09T19:51:56.855Z,101180.81
2022-08-09T19:57:02.309Z,101183.81
2022-08-09T20:04:06.929Z,101185.78
2022-08-09T20:07:56.743Z,101177.56
2022-08-09T20:12:55.033Z,101179.41
2022-08-09T20:17:59.809Z,101177.34
2022-08-09T20:23:03.380Z,101174.19
2022-08-09T20:28:08.627Z,101167.34
2022-08-09T20:33:16.577Z,101173.22
2022-08-09T20:38:33.127Z,101170.44
2022-08-09T20:43:45.687Z,101162.50
2022-08-09T20:49:02.164Z,101166.75
2022-08-09T20:54:06.455Z,101161.28
2022-08-09T20:59:50.087Z,101167.09
2022-08-09T21:05:52.230Z,101156.34
2022-08-09T21:10:06.611Z,101160.88
2022-08-09T21:15:13.389Z,101152.53
2022-08-09T21:20:22.867Z,101148.03
2022-08-09T21:25:38.197Z,101138.97
2022-08-09T21:30:43.812Z,101137.66
2022-08-09T21:35:51.148Z,101134.56
2022-08-09T21:40:55.089Z,101129.09
2022-08-09T21:46:00.925Z,101141.78
2022-08-09T21:51:13.346Z,101139.44
2022-08-09T21:56:34.047Z,101126.53
2022-08-09T22:01:59.067Z,101117.75
2022-08-09T22:07:05.504Z,101124.34
2022-08-09T22:12:19.076Z,101123.28
2022-08-09T22:17:34.642Z,101116.63
2022-08-09T22:22:49.903Z,101119.59
2022-08-09T22:27:53.496Z,101118.47
2022-08-09T22:33:03.685Z,101123.09
2022-08-09T22:38:14.763Z,101124.59
2022-08-09T22:44:02.468Z,101112.16
2022-08-09T22:48:50.365Z,101115.56
2022-08-09T22:54:02.269Z,101116.31
2022-08-09T22:59:55.833Z,101115.06
2022-08-09T23:04:32.714Z,101108.63
2022-08-09T23:09:36.553Z,101108.31
2022-08-09T23:14:42.133Z,101119.63
2022-08-09T23:20:00.643Z,101121.84
2022-08-09T23:25:11.894Z,101127.16
2022-08-09T23:30:15.597Z,101119.44
2022-08-09T23:35:20.832Z,101115.75
2022-08-09T23:40:24.399Z,101115.25
2022-08-09T23:45:36.375Z,101117.97
2022-08-09T23:50:43.637Z,101124.28
2022-08-09T23:55:49.748Z,101129.91
